This is the latest recevied weather packets stored in our database for station/object UB2FAY-13. If no packets are shown the sender has not sent any weather packets the latest 10 day(s).
| Time | Temp. | Humidity | Pressure | Rain* | Wind** | Luminosity | Snow |
|---|---|---|---|---|---|---|---|
| 1777699618 | 16.67° C | 52% | 1022.6 hPa | 0 mm | - | - | - |
| 1777699015 | 16.11° C | 53% | 1022.8 hPa | 0 mm | - | - | - |
| 1777698415 | 16.11° C | 53% | 1022.6 hPa | 0 mm | - | - | - |
| 1777697818 | 16.11° C | 54% | 1022.5 hPa | 0 mm | - | - | - |
| 1777697215 | 15.56° C | 55% | 1022.5 hPa | 0 mm | - | - | - |
| 1777696615 | 15.56° C | 57% | 1022.6 hPa | 0 mm | - | - | - |
| 1777696015 | 15° C | 59% | 1022.5 hPa | 0 mm | - | - | - |
| 1777695415 | 14.44° C | 60% | 1022.4 hPa | 0 mm | - | - | - |
| 1777694815 | 13.89° C | 62% | 1022.5 hPa | 0 mm | - | - | - |
| 1777694215 | 13.33° C | 64% | 1022.4 hPa | 0 mm | - | - | - |
| 1777693615 | 12.78° C | 66% | 1022.3 hPa | 0 mm | - | - | - |
| 1777693015 | 12.22° C | 67% | 1022.5 hPa | 0 mm | - | - | - |
| 1777692417 | 11.67° C | 68% | 1022.5 hPa | 0 mm | - | - | - |
| 1777691815 | 11.11° C | 70% | 1022.5 hPa | 0 mm | - | - | - |
| 1777691215 | 10.56° C | 70% | 1022.6 hPa | 0 mm | - | - | - |
| 1777690654 | 10.56° C | 70% | 1022.4 hPa | 0 mm | - | - | - |
| 1777690615 | 10.56° C | 70% | 1022.4 hPa | 0 mm | - | - | - |
| 1777690102 | 10.56° C | 69% | 1022.6 hPa | 0 mm | - | - | - |
| 1777690015 | 10.56° C | 69% | 1022.6 hPa | 0 mm | - | - | - |
| 1777689416 | 10.56° C | 69% | 1022.6 hPa | 0 mm | - | - | - |
| 1777688816 | 10.56° C | 68% | 1022.7 hPa | 0 mm | - | - | - |
| 1777687616 | 10.56° C | 66% | 1022.6 hPa | 0 mm | - | - | - |
| 1777673816 | 13.33° C | 61% | 1023.3 hPa | 0 mm | - | - | - |
| 1777673216 | 13.33° C | 62% | 1023.4 hPa | 0 mm | - | - | - |
| 1777672616 | 13.89° C | 63% | 1023.4 hPa | 0 mm | - | - | - |
* Rain latest hour (hover to see other rain measurements)
** Current wind speed in m/s (hover to see current wind gust speed)